createdAt,value
2022-10-07T00:02:45.603Z,13.70
2022-10-07T00:06:09.394Z,13.70
2022-10-07T00:09:17.807Z,13.70
2022-10-07T00:12:26.225Z,13.70
2022-10-07T00:15:34.649Z,13.70
2022-10-07T00:18:43.485Z,13.70
2022-10-07T00:21:53.655Z,13.70
2022-10-07T00:25:02.158Z,13.70
2022-10-07T00:28:10.610Z,13.70
2022-10-07T00:31:20.665Z,13.70
2022-10-07T00:34:29.146Z,13.70
2022-10-07T00:37:43.202Z,13.70
2022-10-07T00:40:52.780Z,13.70
2022-10-07T00:44:01.533Z,13.70
2022-10-07T00:47:18.173Z,13.80
2022-10-07T00:50:29.549Z,13.80
2022-10-07T00:53:42.249Z,13.80
2022-10-07T00:56:52.616Z,13.90
2022-10-07T01:00:02.156Z,13.90
2022-10-07T01:03:12.571Z,13.90
2022-10-07T01:06:21.031Z,13.90
2022-10-07T01:09:30.907Z,13.90
2022-10-07T01:12:51.526Z,13.90
2022-10-07T01:16:09.030Z,13.90
2022-10-07T01:19:43.032Z,13.90
2022-10-07T01:23:12.017Z,13.90
2022-10-07T01:26:44.879Z,13.90
2022-10-07T01:29:57.483Z,13.90
2022-10-07T01:33:09.464Z,13.90
2022-10-07T01:36:21.708Z,13.80
2022-10-07T01:39:34.835Z,13.80
2022-10-07T01:42:47.128Z,13.80
2022-10-07T01:45:56.500Z,13.70
2022-10-07T01:49:05.601Z,13.70
2022-10-07T01:52:41.031Z,13.70
2022-10-07T01:55:59.760Z,13.60
2022-10-07T01:59:44.242Z,13.60
2022-10-07T02:03:09.711Z,13.60
2022-10-07T02:06:30.064Z,13.60
2022-10-07T02:09:43.449Z,13.60
2022-10-07T02:12:57.541Z,13.60
2022-10-07T02:16:17.582Z,13.60
2022-10-07T02:19:29.878Z,13.50
2022-10-07T02:22:42.135Z,13.50
2022-10-07T02:25:54.977Z,13.50
2022-10-07T02:29:06.805Z,13.50
2022-10-07T02:32:22.120Z,13.50
2022-10-07T02:35:36.198Z,13.50
2022-10-07T02:38:45.259Z,13.60
2022-10-07T02:42:03.682Z,13.60
2022-10-07T02:45:19.124Z,13.60
2022-10-07T02:48:34.541Z,13.70
2022-10-07T02:51:48.385Z,13.70
2022-10-07T02:55:00.288Z,13.80
2022-10-07T02:58:11.373Z,13.80
2022-10-07T03:01:24.822Z,13.70
2022-10-07T03:04:34.932Z,13.70
2022-10-07T03:07:43.888Z,13.70
2022-10-07T03:10:52.527Z,13.80
2022-10-07T03:14:01.801Z,13.80
2022-10-07T03:17:10.847Z,13.80
2022-10-07T03:20:20.740Z,13.80
2022-10-07T03:23:30.453Z,13.80
2022-10-07T03:26:39.236Z,13.80
2022-10-07T03:29:48.938Z,13.90
2022-10-07T03:32:57.503Z,13.90
2022-10-07T03:36:09.157Z,13.90
2022-10-07T03:39:19.298Z,13.90
2022-10-07T03:42:28.841Z,13.90
2022-10-07T03:45:44.691Z,14.00
2022-10-07T03:48:54.125Z,14.00
2022-10-07T03:52:04.736Z,14.00
2022-10-07T03:55:13.267Z,14.10
2022-10-07T03:58:22.322Z,14.10
2022-10-07T04:01:31.788Z,14.10
2022-10-07T04:04:41.885Z,14.10
2022-10-07T04:07:52.218Z,14.10
2022-10-07T04:11:02.892Z,14.10
2022-10-07T04:14:12.267Z,14.10
2022-10-07T04:17:23.634Z,14.10
2022-10-07T04:20:32.128Z,14.10
2022-10-07T04:23:43.455Z,14.20
2022-10-07T04:26:53.143Z,14.20
2022-10-07T04:30:01.668Z,14.20
2022-10-07T04:33:10.535Z,14.10
2022-10-07T04:36:19.273Z,14.10
2022-10-07T04:39:56.414Z,14.10
2022-10-07T04:43:23.552Z,14.20
2022-10-07T04:46:38.156Z,14.20
2022-10-07T04:49:53.741Z,14.20
2022-10-07T04:53:02.402Z,14.20
2022-10-07T04:56:14.643Z,14.20
2022-10-07T04:59:24.066Z,14.20
2022-10-07T05:02:34.862Z,14.30
2022-10-07T05:05:44.095Z,14.30
2022-10-07T05:08:54.371Z,14.30
2022-10-07T05:12:06.611Z,14.30
2022-10-07T05:15:15.286Z,14.30
2022-10-07T05:18:25.021Z,14.30
2022-10-07T05:21:34.749Z,14.40
2022-10-07T05:24:45.484Z,14.40
2022-10-07T05:27:55.498Z,14.30
2022-10-07T05:31:08.715Z,14.40
2022-10-07T05:34:17.500Z,14.40
2022-10-07T05:37:25.957Z,14.40
2022-10-07T05:40:35.031Z,14.40
2022-10-07T05:43:47.309Z,14.40
2022-10-07T05:46:58.985Z,14.40
2022-10-07T05:50:09.248Z,14.40
2022-10-07T05:53:17.891Z,14.30
2022-10-07T05:56:26.433Z,14.40
2022-10-07T05:59:38.218Z,14.40
2022-10-07T06:02:47.294Z,14.40
2022-10-07T06:05:56.658Z,14.30
2022-10-07T06:09:24.785Z,14.40
2022-10-07T06:12:51.449Z,14.40
2022-10-07T06:16:05.964Z,14.40
2022-10-07T06:19:22.660Z,14.40
2022-10-07T06:22:34.118Z,14.40
2022-10-07T06:25:43.970Z,14.40
2022-10-07T06:28:52.734Z,14.40
2022-10-07T06:32:03.617Z,14.50
2022-10-07T06:35:12.654Z,14.50
2022-10-07T06:38:21.316Z,14.50
2022-10-07T06:41:30.008Z,14.50
2022-10-07T06:44:48.372Z,14.50
2022-10-07T06:48:00.985Z,14.50
2022-10-07T06:51:13.905Z,14.50
2022-10-07T06:54:22.557Z,14.50
2022-10-07T06:57:45.276Z,14.50
2022-10-07T07:00:56.494Z,14.50
2022-10-07T07:04:07.033Z,14.50
2022-10-07T07:07:15.607Z,14.50
2022-10-07T07:10:24.802Z,14.60
2022-10-07T07:13:36.017Z,14.50
2022-10-07T07:16:44.614Z,14.60
2022-10-07T07:19:54.574Z,14.60
2022-10-07T07:23:03.526Z,14.60
2022-10-07T07:26:12.356Z,14.60
2022-10-07T07:29:20.983Z,14.60
2022-10-07T07:32:34.432Z,14.70
2022-10-07T07:35:44.974Z,14.70
2022-10-07T07:38:54.621Z,14.70
2022-10-07T07:42:03.450Z,14.70
2022-10-07T07:45:12.206Z,14.70
2022-10-07T07:48:20.727Z,14.70
2022-10-07T07:51:30.946Z,14.70
2022-10-07T07:54:41.651Z,14.70
2022-10-07T07:57:50.852Z,14.70
2022-10-07T08:01:00.645Z,14.70
2022-10-07T08:04:11.599Z,14.80
2022-10-07T08:07:21.726Z,14.70
2022-10-07T08:10:31.624Z,14.70
2022-10-07T08:13:41.365Z,14.70
2022-10-07T08:16:53.583Z,14.60
2022-10-07T08:20:02.306Z,14.60
2022-10-07T08:23:12.464Z,14.60
2022-10-07T08:26:20.885Z,14.60
2022-10-07T08:29:30.381Z,14.50
2022-10-07T08:32:39.203Z,14.50
2022-10-07T08:35:52.934Z,14.50
2022-10-07T08:39:05.652Z,14.50
2022-10-07T08:42:20.508Z,14.40
2022-10-07T08:45:32.878Z,14.40
2022-10-07T08:48:43.398Z,14.40
2022-10-07T08:51:58.219Z,14.40
2022-10-07T08:55:16.892Z,14.50
2022-10-07T08:58:40.225Z,14.40
2022-10-07T09:02:03.089Z,14.50
2022-10-07T09:05:21.300Z,14.50
2022-10-07T09:08:36.164Z,14.40
2022-10-07T09:11:49.409Z,14.40
2022-10-07T09:15:00.510Z,14.50
2022-10-07T09:18:18.353Z,14.50
2022-10-07T09:21:35.307Z,14.60
2022-10-07T09:38:46.460Z,14.60
2022-10-07T09:41:54.935Z,14.60
2022-10-07T09:45:24.331Z,14.50
2022-10-07T09:48:35.843Z,14.60
2022-10-07T09:52:00.114Z,14.70
2022-10-07T09:55:34.831Z,14.70
2022-10-07T09:58:43.627Z,14.70
2022-10-07T10:01:58.998Z,14.70
2022-10-07T10:05:19.915Z,14.70
2022-10-07T10:08:31.331Z,14.60
2022-10-07T10:11:39.803Z,14.70
2022-10-07T10:14:50.477Z,14.60
2022-10-07T10:18:00.316Z,14.70
2022-10-07T10:21:30.638Z,14.70
2022-10-07T10:24:56.459Z,14.70
2022-10-07T10:28:11.279Z,14.70
2022-10-07T10:31:25.966Z,14.70
2022-10-07T10:34:44.190Z,14.50
2022-10-07T10:38:33.248Z,14.50
2022-10-07T10:41:48.630Z,14.50
2022-10-07T10:45:12.355Z,14.50
2022-10-07T10:48:30.537Z,14.50
2022-10-07T10:51:58.692Z,14.40
2022-10-07T10:55:40.743Z,14.40
2022-10-07T10:59:00.610Z,14.40
2022-10-07T11:02:29.488Z,14.40
2022-10-07T11:05:40.239Z,14.40
2022-10-07T11:08:52.781Z,14.40
2022-10-07T11:12:05.027Z,14.40
2022-10-07T11:15:19.888Z,14.40
2022-10-07T11:18:34.015Z,14.40
2022-10-07T11:21:46.217Z,14.40
2022-10-07T11:25:00.299Z,14.40
2022-10-07T11:28:18.162Z,14.50
2022-10-07T11:31:32.453Z,14.40
2022-10-07T11:34:53.647Z,14.40
2022-10-07T11:38:15.080Z,14.30
2022-10-07T11:41:30.692Z,14.40
2022-10-07T11:44:47.227Z,14.40
2022-10-07T11:48:00.934Z,14.40
2022-10-07T11:51:18.890Z,14.20
2022-10-07T11:54:30.195Z,14.10
2022-10-07T11:57:43.395Z,14.20
2022-10-07T12:00:52.049Z,14.20
2022-10-07T12:04:42.361Z,14.30
2022-10-07T12:08:01.469Z,14.50
2022-10-07T12:11:43.231Z,14.50
2022-10-07T12:15:03.345Z,14.50
2022-10-07T12:18:38.910Z,14.40
2022-10-07T12:22:22.239Z,14.30
2022-10-07T12:25:32.530Z,14.40
2022-10-07T12:28:48.715Z,14.50
2022-10-07T12:31:58.837Z,14.50
2022-10-07T12:35:40.314Z,14.60
2022-10-07T12:39:33.268Z,14.60
2022-10-07T12:42:49.286Z,14.80
2022-10-07T12:45:58.741Z,14.90
2022-10-07T12:49:17.266Z,14.90
2022-10-07T12:52:41.315Z,14.90
2022-10-07T12:55:52.805Z,14.80
2022-10-07T12:59:51.031Z,14.90
2022-10-07T13:03:34.957Z,14.90
2022-10-07T13:07:13.006Z,14.90
2022-10-07T13:10:47.811Z,14.80
2022-10-07T13:14:02.260Z,14.70
2022-10-07T13:17:25.377Z,14.70
2022-10-07T13:20:40.366Z,14.60
2022-10-07T13:23:52.770Z,14.50
2022-10-07T13:27:02.707Z,14.40
2022-10-07T13:30:37.425Z,14.40
2022-10-07T13:33:46.092Z,14.40
2022-10-07T13:36:54.524Z,14.40
2022-10-07T13:40:21.507Z,14.40
2022-10-07T13:43:33.151Z,14.40
2022-10-07T13:46:42.727Z,14.40
2022-10-07T13:49:54.133Z,14.40
2022-10-07T13:53:02.608Z,14.50
2022-10-07T13:56:21.876Z,14.40
2022-10-07T13:59:36.622Z,14.40
2022-10-07T14:02:45.862Z,14.40
2022-10-07T14:05:56.445Z,14.40
2022-10-07T14:09:05.153Z,14.40
2022-10-07T14:12:18.086Z,14.50
2022-10-07T14:15:31.369Z,14.60
2022-10-07T14:18:44.994Z,14.60
2022-10-07T14:21:53.455Z,14.70
2022-10-07T14:25:04.216Z,14.70
2022-10-07T14:28:19.040Z,14.70
2022-10-07T14:31:46.632Z,14.70
2022-10-07T14:35:24.155Z,14.70
2022-10-07T14:38:32.586Z,14.70
2022-10-07T14:41:41.098Z,14.70
2022-10-07T14:44:50.130Z,14.70
2022-10-07T14:48:00.061Z,14.70
2022-10-07T14:51:09.034Z,14.70
2022-10-07T14:54:17.498Z,14.70
2022-10-07T14:57:26.204Z,14.60
2022-10-07T15:00:39.451Z,14.50
2022-10-07T15:03:50.441Z,14.50
2022-10-07T15:06:59.206Z,14.50
2022-10-07T15:10:15.407Z,14.40
2022-10-07T15:13:23.940Z,14.40
2022-10-07T15:16:32.559Z,14.30
2022-10-07T15:19:43.080Z,14.30
2022-10-07T15:22:52.221Z,14.20
2022-10-07T15:26:02.600Z,14.20
2022-10-07T15:29:13.324Z,14.10
2022-10-07T15:32:22.346Z,14.10
2022-10-07T15:35:35.938Z,14.10
2022-10-07T15:38:44.506Z,14.10
2022-10-07T15:41:52.997Z,14.10
2022-10-07T15:45:01.640Z,14.10
2022-10-07T15:48:10.215Z,14.10
2022-10-07T15:51:20.040Z,14.20
2022-10-07T15:54:28.471Z,14.20
2022-10-07T15:57:36.987Z,14.20
2022-10-07T16:00:45.704Z,14.20
2022-10-07T16:03:54.148Z,14.20
2022-10-07T16:07:03.997Z,14.20
2022-10-07T16:10:13.279Z,14.20
2022-10-07T16:13:23.173Z,14.20
2022-10-07T16:16:33.123Z,14.20
2022-10-07T16:19:41.595Z,14.20
2022-10-07T16:22:51.360Z,14.20
2022-10-07T16:26:05.502Z,14.20
2022-10-07T16:29:33.390Z,14.20
2022-10-07T16:32:41.860Z,14.20
2022-10-07T16:35:50.231Z,14.20
2022-10-07T16:39:03.233Z,14.30
2022-10-07T16:42:11.688Z,14.20
2022-10-07T16:45:20.299Z,14.30
2022-10-07T16:48:28.825Z,14.30
2022-10-07T16:51:38.770Z,14.20
2022-10-07T16:54:49.842Z,14.20
2022-10-07T16:57:58.261Z,14.10
2022-10-07T17:01:09.766Z,14.10
2022-10-07T17:04:18.757Z,14.00
2022-10-07T17:07:27.418Z,14.00
2022-10-07T17:10:37.975Z,14.10
2022-10-07T17:13:46.431Z,14.10
2022-10-07T17:16:58.008Z,14.00
2022-10-07T17:20:07.249Z,14.10
2022-10-07T17:23:15.696Z,14.10
2022-10-07T17:26:26.886Z,14.10
2022-10-07T17:29:35.963Z,14.20
2022-10-07T17:32:44.382Z,14.20
2022-10-07T17:35:52.876Z,14.30
2022-10-07T17:39:01.638Z,14.20
2022-10-07T17:42:11.505Z,14.20
2022-10-07T17:45:19.922Z,14.20
2022-10-07T17:48:29.037Z,14.20
2022-10-07T17:51:38.103Z,14.20
2022-10-07T17:54:46.573Z,14.30
2022-10-07T17:57:56.397Z,14.30
2022-10-07T18:01:07.373Z,14.30
2022-10-07T18:04:23.670Z,14.20
2022-10-07T18:07:32.216Z,14.30
2022-10-07T18:10:40.724Z,14.20
2022-10-07T18:14:08.303Z,14.20
2022-10-07T18:17:16.708Z,14.20
2022-10-07T18:20:28.552Z,14.20
2022-10-07T18:23:38.014Z,14.30
2022-10-07T18:26:46.546Z,14.20
2022-10-07T18:29:56.966Z,14.20
2022-10-07T18:33:05.419Z,14.10
2022-10-07T18:36:15.573Z,14.10
2022-10-07T18:39:24.012Z,14.10
2022-10-07T18:42:32.674Z,14.10
2022-10-07T18:45:42.508Z,14.10
2022-10-07T18:48:51.254Z,14.00
2022-10-07T18:51:59.719Z,14.10
2022-10-07T18:55:08.808Z,14.00
2022-10-07T18:58:17.243Z,14.00
2022-10-07T19:01:30.313Z,14.00
2022-10-07T19:04:38.940Z,14.00
2022-10-07T19:07:47.656Z,14.00
2022-10-07T19:10:56.438Z,14.00
2022-10-07T19:14:05.315Z,14.00
2022-10-07T19:17:15.218Z,14.00
2022-10-07T19:20:24.337Z,14.00
2022-10-07T19:23:32.916Z,14.10
2022-10-07T19:26:43.866Z,14.10
2022-10-07T19:29:52.427Z,14.10
2022-10-07T19:33:02.565Z,14.10
2022-10-07T19:36:11.619Z,14.10
2022-10-07T19:39:21.785Z,14.10
2022-10-07T19:42:31.007Z,14.10
2022-10-07T19:45:40.191Z,14.10
2022-10-07T19:48:50.569Z,14.10
2022-10-07T19:51:59.024Z,14.20
2022-10-07T19:55:08.546Z,14.20
2022-10-07T19:58:17.323Z,14.20
2022-10-07T20:01:27.463Z,14.20
2022-10-07T20:04:37.278Z,14.20
2022-10-07T20:07:45.887Z,14.20
2022-10-07T20:10:54.666Z,14.20
2022-10-07T20:14:06.068Z,14.20
2022-10-07T20:17:14.731Z,14.20
2022-10-07T20:20:24.666Z,14.20
2022-10-07T20:23:37.194Z,14.30
2022-10-07T20:26:46.138Z,14.30
2022-10-07T20:30:02.519Z,14.30
2022-10-07T20:33:12.205Z,14.30
2022-10-07T20:36:23.886Z,14.30
2022-10-07T20:39:52.166Z,14.30
2022-10-07T20:43:00.979Z,14.30
2022-10-07T20:46:10.290Z,14.30
2022-10-07T20:49:23.340Z,14.30
2022-10-07T20:52:35.693Z,14.30
2022-10-07T20:55:44.996Z,14.30
2022-10-07T20:58:53.437Z,14.30
2022-10-07T21:02:05.012Z,14.30
2022-10-07T21:05:17.117Z,14.30
2022-10-07T21:08:26.995Z,14.30
2022-10-07T21:11:35.926Z,14.30
2022-10-07T21:14:47.032Z,14.30
2022-10-07T21:17:55.437Z,14.30
2022-10-07T21:21:03.842Z,14.30
2022-10-07T21:24:13.659Z,14.30
2022-10-07T21:27:22.061Z,14.30
2022-10-07T21:30:30.944Z,14.30
2022-10-07T21:33:40.479Z,14.30
2022-10-07T21:36:53.563Z,14.20
2022-10-07T21:40:03.804Z,14.20
2022-10-07T21:43:12.308Z,14.20
2022-10-07T21:46:21.878Z,14.10
2022-10-07T21:49:30.380Z,14.10
2022-10-07T21:52:38.932Z,14.00
2022-10-07T21:55:48.990Z,14.00
2022-10-07T21:59:00.696Z,14.00
2022-10-07T22:02:09.702Z,13.90
2022-10-07T22:05:18.205Z,13.90
2022-10-07T22:08:37.571Z,13.90
2022-10-07T22:11:47.474Z,13.80
2022-10-07T22:14:55.895Z,13.80
2022-10-07T22:18:04.710Z,13.70
2022-10-07T22:21:14.894Z,13.70
2022-10-07T22:24:24.132Z,13.70
2022-10-07T22:27:33.934Z,13.60
2022-10-07T22:30:42.935Z,13.60
2022-10-07T22:33:53.690Z,13.60
2022-10-07T22:37:02.331Z,13.60
2022-10-07T22:40:11.546Z,13.50
2022-10-07T22:43:21.454Z,13.50
2022-10-07T22:46:30.150Z,13.30
2022-10-07T22:49:38.579Z,13.30
2022-10-07T22:52:47.553Z,13.30
2022-10-07T22:55:56.086Z,13.30
2022-10-07T22:59:06.670Z,13.30
2022-10-07T23:02:15.359Z,13.20
2022-10-07T23:05:23.866Z,13.20
2022-10-07T23:08:32.814Z,13.10
2022-10-07T23:11:41.197Z,13.10
2022-10-07T23:14:51.190Z,13.00
2022-10-07T23:17:59.631Z,13.00
2022-10-07T23:21:10.255Z,13.00
2022-10-07T23:24:18.720Z,13.00
2022-10-07T23:27:27.140Z,12.90
2022-10-07T23:30:39.706Z,12.80
2022-10-07T23:33:49.779Z,12.80
2022-10-07T23:36:58.254Z,12.80
2022-10-07T23:40:08.007Z,12.70
2022-10-07T23:43:16.523Z,12.70
2022-10-07T23:46:28.576Z,12.60
2022-10-07T23:49:37.062Z,12.60
2022-10-07T23:52:45.547Z,12.50
2022-10-07T23:55:54.575Z,12.50
2022-10-07T23:59:03.922Z,12.50
